sensor_id;sensor_type;location;lat;lon;timestamp;pressure;altitude;pressure_sealevel;temperature;humidity
63115;BME280;49208;50.874;6.466;2022-07-06T00:01:01;101377.94;;;12.43;73.33
63115;BME280;49208;50.874;6.466;2022-07-06T00:03:26;101378.16;;;12.36;73.46
63115;BME280;49208;50.874;6.466;2022-07-06T00:05:52;101382.78;;;12.29;74.02
63115;BME280;49208;50.874;6.466;2022-07-06T00:08:17;101381.16;;;12.23;73.91
63115;BME280;49208;50.874;6.466;2022-07-06T00:10:42;101385.81;;;12.15;74.19
63115;BME280;49208;50.874;6.466;2022-07-06T00:13:08;101387.81;;;12.07;74.65
63115;BME280;49208;50.874;6.466;2022-07-06T00:15:34;101380.81;;;12.03;74.72
63115;BME280;49208;50.874;6.466;2022-07-06T00:17:59;101378.28;;;11.98;75.18
63115;BME280;49208;50.874;6.466;2022-07-06T00:20:25;101379.28;;;11.94;75.39
63115;BME280;49208;50.874;6.466;2022-07-06T00:22:50;101379.41;;;11.89;74.99
63115;BME280;49208;50.874;6.466;2022-07-06T00:25:15;101372.41;;;11.84;75.28
63115;BME280;49208;50.874;6.466;2022-07-06T00:27:41;101369.88;;;11.78;75.26
63115;BME280;49208;50.874;6.466;2022-07-06T00:30:07;101377.06;;;11.74;75.88
63115;BME280;49208;50.874;6.466;2022-07-06T00:32:32;101374.53;;;11.69;76.18
63115;BME280;49208;50.874;6.466;2022-07-06T00:34:58;101363.13;;;11.64;76.35
63115;BME280;49208;50.874;6.466;2022-07-06T00:37:23;101373.81;;;11.63;76.07
63115;BME280;49208;50.874;6.466;2022-07-06T00:39:49;101367.66;;;11.61;76.05
63115;BME280;49208;50.874;6.466;2022-07-06T00:42:14;101386.34;;;11.59;76.85
63115;BME280;49208;50.874;6.466;2022-07-06T00:44:39;101384.63;;;11.57;76.47
63115;BME280;49208;50.874;6.466;2022-07-06T00:47:05;101378.50;;;11.53;76.68
63115;BME280;49208;50.874;6.466;2022-07-06T00:49:31;101384.81;;;11.49;76.78
63115;BME280;49208;50.874;6.466;2022-07-06T00:52:14;101391.16;;;11.43;76.81
63115;BME280;49208;50.874;6.466;2022-07-06T00:54:41;101393.06;;;11.38;77.05
63115;BME280;49208;50.874;6.466;2022-07-06T00:57:07;101387.88;;;11.33;77.26
63115;BME280;49208;50.874;6.466;2022-07-06T00:59:33;101382.53;;;11.33;77.77
63115;BME280;49208;50.874;6.466;2022-07-06T01:01:58;101391.41;;;11.32;77.50
63115;BME280;49208;50.874;6.466;2022-07-06T01:04:24;101391.41;;;11.32;77.63
63115;BME280;49208;50.874;6.466;2022-07-06T01:06:49;101387.91;;;11.30;77.73
63115;BME280;49208;50.874;6.466;2022-07-06T01:09:16;101389.75;;;11.28;77.94
63115;BME280;49208;50.874;6.466;2022-07-06T01:11:41;101391.63;;;11.25;78.58
63115;BME280;49208;50.874;6.466;2022-07-06T01:14:07;101396.16;;;11.20;78.56
63115;BME280;49208;50.874;6.466;2022-07-06T01:16:34;101391.81;;;11.16;79.16
63115;BME280;49208;50.874;6.466;2022-07-06T01:18:59;101384.81;;;11.11;78.86
63115;BME280;49208;50.874;6.466;2022-07-06T01:21:25;101395.56;;;11.07;79.18
63115;BME280;49208;50.874;6.466;2022-07-06T01:23:50;101383.25;;;11.01;79.26
63115;BME280;49208;50.874;6.466;2022-07-06T01:26:18;101388.69;;;10.97;79.63
63115;BME280;49208;50.874;6.466;2022-07-06T01:28:45;101391.44;;;10.94;79.72
63115;BME280;49208;50.874;6.466;2022-07-06T01:31:20;101384.44;;;10.88;79.67
63115;BME280;49208;50.874;6.466;2022-07-06T01:33:48;101388.13;;;10.82;79.51
63115;BME280;49208;50.874;6.466;2022-07-06T01:36:14;101386.44;;;10.78;80.08
63115;BME280;49208;50.874;6.466;2022-07-06T01:38:55;101383.88;;;10.74;80.60
63115;BME280;49208;50.874;6.466;2022-07-06T01:41:24;101382.16;;;10.71;80.63
63115;BME280;49208;50.874;6.466;2022-07-06T01:43:50;101389.31;;;10.67;81.09
63115;BME280;49208;50.874;6.466;2022-07-06T01:46:16;101386.69;;;10.66;80.92
63115;BME280;49208;50.874;6.466;2022-07-06T01:48:41;101375.16;;;10.65;81.00
63115;BME280;49208;50.874;6.466;2022-07-06T01:51:07;101379.63;;;10.63;81.09
63115;BME280;49208;50.874;6.466;2022-07-06T01:53:32;101377.97;;;10.58;81.45
63115;BME280;49208;50.874;6.466;2022-07-06T01:55:58;101373.63;;;10.54;81.34
63115;BME280;49208;50.874;6.466;2022-07-06T01:58:23;101370.22;;;10.47;81.32
63115;BME280;49208;50.874;6.466;2022-07-06T02:00:49;101374.78;;;10.42;81.86
63115;BME280;49208;50.874;6.466;2022-07-06T02:03:14;101375.69;;;10.39;81.69
63115;BME280;49208;50.874;6.466;2022-07-06T02:05:40;101377.56;;;10.36;81.66
63115;BME280;49208;50.874;6.466;2022-07-06T02:08:05;101385.56;;;10.34;82.02
63115;BME280;49208;50.874;6.466;2022-07-06T02:10:30;101381.19;;;10.31;82.05
63115;BME280;49208;50.874;6.466;2022-07-06T02:12:56;101384.69;;;10.34;82.48
63115;BME280;49208;50.874;6.466;2022-07-06T02:15:21;101383.78;;;10.33;82.28
63115;BME280;49208;50.874;6.466;2022-07-06T02:17:46;101394.44;;;10.33;82.56
63115;BME280;49208;50.874;6.466;2022-07-06T02:20:12;101388.31;;;10.29;82.74
63115;BME280;49208;50.874;6.466;2022-07-06T02:22:37;101390.97;;;10.26;82.72
63115;BME280;49208;50.874;6.466;2022-07-06T02:25:03;101384.84;;;10.23;82.82
63115;BME280;49208;50.874;6.466;2022-07-06T02:27:29;101380.53;;;10.17;83.11
63115;BME280;49208;50.874;6.466;2022-07-06T02:29:54;101388.56;;;10.12;83.46
63115;BME280;49208;50.874;6.466;2022-07-06T02:32:20;101377.13;;;10.09;83.22
63115;BME280;49208;50.874;6.466;2022-07-06T02:34:45;101392.25;;;10.07;83.47
63115;BME280;49208;50.874;6.466;2022-07-06T02:37:10;101384.25;;;10.07;83.83
63115;BME280;49208;50.874;6.466;2022-07-06T02:39:36;101383.41;;;10.05;83.98
63115;BME280;49208;50.874;6.466;2022-07-06T02:42:01;101384.34;;;10.02;83.76
63115;BME280;49208;50.874;6.466;2022-07-06T02:44:27;101387.03;;;10.01;84.13
63115;BME280;49208;50.874;6.466;2022-07-06T02:46:52;101388.81;;;10.00;84.39
63115;BME280;49208;50.874;6.466;2022-07-06T02:49:18;101390.59;;;10.00;84.47
63115;BME280;49208;50.874;6.466;2022-07-06T02:51:43;101377.28;;;10.00;84.56
63115;BME280;49208;50.874;6.466;2022-07-06T02:54:08;101385.31;;;9.98;84.35
63115;BME280;49208;50.874;6.466;2022-07-06T02:56:34;101391.53;;;9.96;84.18
63115;BME280;49208;50.874;6.466;2022-07-06T02:58:59;101383.63;;;9.93;84.25
63115;BME280;49208;50.874;6.466;2022-07-06T03:01:25;101390.75;;;9.90;83.88
63115;BME280;49208;50.874;6.466;2022-07-06T03:03:50;101389.94;;;9.85;84.25
63115;BME280;49208;50.874;6.466;2022-07-06T03:06:16;101386.44;;;9.83;84.23
63115;BME280;49208;50.874;6.466;2022-07-06T03:08:41;101393.63;;;9.80;84.29
63115;BME280;49208;50.874;6.466;2022-07-06T03:11:07;101395.44;;;9.78;84.52
63115;BME280;49208;50.874;6.466;2022-07-06T03:13:32;101401.63;;;9.77;84.43
63115;BME280;49208;50.874;6.466;2022-07-06T03:15:57;101401.66;;;9.75;84.19
63115;BME280;49208;50.874;6.466;2022-07-06T03:18:23;101402.53;;;9.76;84.46
63115;BME280;49208;50.874;6.466;2022-07-06T03:20:48;101405.22;;;9.76;84.49
63115;BME280;49208;50.874;6.466;2022-07-06T03:23:14;101398.09;;;9.76;84.59
63115;BME280;49208;50.874;6.466;2022-07-06T03:25:39;101411.38;;;9.78;84.39
63115;BME280;49208;50.874;6.466;2022-07-06T03:28:04;101401.63;;;9.77;84.53
63115;BME280;49208;50.874;6.466;2022-07-06T03:30:30;101407.88;;;9.76;84.21
63115;BME280;49208;50.874;6.466;2022-07-06T03:32:55;101411.41;;;9.76;84.47
63115;BME280;49208;50.874;6.466;2022-07-06T03:35:21;101416.72;;;9.76;84.59
63115;BME280;49208;50.874;6.466;2022-07-06T03:37:46;101410.53;;;9.76;84.31
63115;BME280;49208;50.874;6.466;2022-07-06T03:40:12;101414.06;;;9.75;84.09
63115;BME280;49208;50.874;6.466;2022-07-06T03:42:37;101410.56;;;9.73;83.89
63115;BME280;49208;50.874;6.466;2022-07-06T03:45:04;101399.09;;;9.69;83.63
63115;BME280;49208;50.874;6.466;2022-07-06T03:47:29;101409.78;;;9.67;83.80
63115;BME280;49208;50.874;6.466;2022-07-06T03:49:55;101400.03;;;9.66;83.94
63115;BME280;49208;50.874;6.466;2022-07-06T03:52:21;101412.44;;;9.67;84.31
63115;BME280;49208;50.874;6.466;2022-07-06T03:54:46;101417.75;;;9.67;84.22
63115;BME280;49208;50.874;6.466;2022-07-06T03:57:12;101417.69;;;9.69;84.88
63115;BME280;49208;50.874;6.466;2022-07-06T03:59:39;101418.53;;;9.73;84.73
63115;BME280;49208;50.874;6.466;2022-07-06T04:02:04;101414.91;;;9.77;84.87
63115;BME280;49208;50.874;6.466;2022-07-06T04:04:30;101418.41;;;9.80;84.80
63115;BME280;49208;50.874;6.466;2022-07-06T04:06:55;101413.03;;;9.83;84.81
63115;BME280;49208;50.874;6.466;2022-07-06T04:09:21;101418.34;;;9.85;84.65
63115;BME280;49208;50.874;6.466;2022-07-06T04:11:46;101414.72;;;9.89;84.24
63115;BME280;49208;50.874;6.466;2022-07-06T04:14:11;101414.72;;;9.89;83.78
63115;BME280;49208;50.874;6.466;2022-07-06T04:16:37;101414.72;;;9.89;84.10
63115;BME280;49208;50.874;6.466;2022-07-06T04:19:02;101414.72;;;9.87;83.68
63115;BME280;49208;50.874;6.466;2022-07-06T04:21:27;101414.72;;;9.87;84.14
63115;BME280;49208;50.874;6.466;2022-07-06T04:23:53;101412.94;;;9.89;84.33
63115;BME280;49208;50.874;6.466;2022-07-06T04:26:18;101410.28;;;9.89;84.11
63115;BME280;49208;50.874;6.466;2022-07-06T04:28:44;101420.88;;;9.93;84.37
63115;BME280;49208;50.874;6.466;2022-07-06T04:31:09;101419.03;;;9.96;84.29
63115;BME280;49208;50.874;6.466;2022-07-06T04:33:34;101419.84;;;10.00;84.50
63115;BME280;49208;50.874;6.466;2022-07-06T04:36:00;101422.47;;;10.03;84.15
63115;BME280;49208;50.874;6.466;2022-07-06T04:38:25;101418.88;;;10.05;84.50
63115;BME280;49208;50.874;6.466;2022-07-06T04:40:51;101425.03;;;10.09;84.58
63115;BME280;49208;50.874;6.466;2022-07-06T04:43:16;101434.66;;;10.15;85.04
63115;BME280;49208;50.874;6.466;2022-07-06T04:45:41;101423.97;;;10.18;85.22
63115;BME280;49208;50.874;6.466;2022-07-06T04:48:07;101436.22;;;10.26;84.95
63115;BME280;49208;50.874;6.466;2022-07-06T04:50:33;101434.34;;;10.33;84.79
63115;BME280;49208;50.874;6.466;2022-07-06T04:52:59;101433.38;;;10.39;84.35
63115;BME280;49208;50.874;6.466;2022-07-06T04:55:24;101431.50;;;10.44;84.62
63115;BME280;49208;50.874;6.466;2022-07-06T04:57:49;101427.81;;;10.51;84.55
63115;BME280;49208;50.874;6.466;2022-07-06T05:00:17;101429.41;;;10.60;84.78
63115;BME280;49208;50.874;6.466;2022-07-06T05:02:42;101427.47;;;10.68;84.86
63115;BME280;49208;50.874;6.466;2022-07-06T05:05:08;101426.38;;;10.78;84.66
63115;BME280;49208;50.874;6.466;2022-07-06T05:07:35;101425.28;;;10.88;84.64
63115;BME280;49208;50.874;6.466;2022-07-06T05:10:07;101425.91;;;11.00;84.60
63115;BME280;49208;50.874;6.466;2022-07-06T05:12:33;101422.19;;;11.08;83.96
63115;BME280;49208;50.874;6.466;2022-07-06T05:14:59;101422.91;;;11.17;84.03
63115;BME280;49208;50.874;6.466;2022-07-06T05:17:25;101425.38;;;11.24;84.12
63115;BME280;49208;50.874;6.466;2022-07-06T05:19:50;101421.56;;;11.36;84.40
63115;BME280;49208;50.874;6.466;2022-07-06T05:22:15;101423.84;;;11.51;84.50
63115;BME280;49208;50.874;6.466;2022-07-06T05:24:41;101430.56;;;11.68;83.80
63115;BME280;49208;50.874;6.466;2022-07-06T05:27:06;101431.06;;;11.84;83.31
63115;BME280;49208;50.874;6.466;2022-07-06T05:29:32;101428.97;;;11.98;82.89
63115;BME280;49208;50.874;6.466;2022-07-06T05:31:57;101428.56;;;12.13;82.34
63115;BME280;49208;50.874;6.466;2022-07-06T05:34:22;101429.88;;;12.31;81.73
63115;BME280;49208;50.874;6.466;2022-07-06T05:36:48;101424.91;;;12.50;81.14
63115;BME280;49208;50.874;6.466;2022-07-06T05:39:13;101420.75;;;12.71;79.65
63115;BME280;49208;50.874;6.466;2022-07-06T05:41:44;101425.47;;;12.93;79.14
63115;BME280;49208;50.874;6.466;2022-07-06T05:44:09;101427.53;;;13.13;77.98
63115;BME280;49208;50.874;6.466;2022-07-06T05:46:34;101429.69;;;13.31;77.35
63115;BME280;49208;50.874;6.466;2022-07-06T05:49:00;101428.19;;;13.51;76.27
63115;BME280;49208;50.874;6.466;2022-07-06T05:51:44;101438.19;;;13.72;75.23
63115;BME280;49208;50.874;6.466;2022-07-06T05:54:09;101435.22;;;14.07;73.58
63115;BME280;49208;50.874;6.466;2022-07-06T05:56:35;101438.72;;;15.09;71.23
63115;BME280;49208;50.874;6.466;2022-07-06T05:59:00;101434.97;;;16.65;67.32
63115;BME280;49208;50.874;6.466;2022-07-06T06:01:26;101439.41;;;18.33;61.79
63115;BME280;49208;50.874;6.466;2022-07-06T06:03:51;101437.38;;;20.01;57.75
63115;BME280;49208;50.874;6.466;2022-07-06T06:06:16;101432.59;;;21.08;52.03
63115;BME280;49208;50.874;6.466;2022-07-06T06:08:42;101438.47;;;22.25;48.94
63115;BME280;49208;50.874;6.466;2022-07-06T06:11:07;101438.16;;;23.19;46.29
63115;BME280;49208;50.874;6.466;2022-07-06T06:13:33;101434.75;;;24.13;42.87
63115;BME280;49208;50.874;6.466;2022-07-06T06:15:58;101431.94;;;24.73;41.76
63115;BME280;49208;50.874;6.466;2022-07-06T06:18:23;101443.22;;;25.13;41.03
63115;BME280;49208;50.874;6.466;2022-07-06T06:20:49;101435.31;;;25.76;39.04
63115;BME280;49208;50.874;6.466;2022-07-06T06:23:14;101435.38;;;26.30;37.78
63115;BME280;49208;50.874;6.466;2022-07-06T06:25:40;101429.22;;;26.79;37.13
63115;BME280;49208;50.874;6.466;2022-07-06T06:28:07;101440.47;;;26.86;35.30
63115;BME280;49208;50.874;6.466;2022-07-06T06:30:33;101434.78;;;26.99;36.65
63115;BME280;49208;50.874;6.466;2022-07-06T06:33:16;101444.31;;;27.05;33.93
63115;BME280;49208;50.874;6.466;2022-07-06T06:35:50;101437.13;;;27.44;34.62
63115;BME280;49208;50.874;6.466;2022-07-06T06:38:17;101438.56;;;27.48;33.20
63115;BME280;49208;50.874;6.466;2022-07-06T06:40:42;101436.56;;;27.60;33.98
63115;BME280;49208;50.874;6.466;2022-07-06T06:43:08;101443.47;;;27.54;34.92
63115;BME280;49208;50.874;6.466;2022-07-06T06:45:34;101445.00;;;27.88;32.32
63115;BME280;49208;50.874;6.466;2022-07-06T06:48:00;101447.63;;;27.49;34.18
63115;BME280;49208;50.874;6.466;2022-07-06T06:50:26;101448.03;;;27.04;34.54
63115;BME280;49208;50.874;6.466;2022-07-06T06:52:51;101446.91;;;26.85;35.54
63115;BME280;49208;50.874;6.466;2022-07-06T06:55:20;101448.47;;;26.78;35.12
63115;BME280;49208;50.874;6.466;2022-07-06T06:57:45;101458.28;;;26.59;35.64
63115;BME280;49208;50.874;6.466;2022-07-06T07:00:12;101451.88;;;25.96;36.29
63115;BME280;49208;50.874;6.466;2022-07-06T07:02:37;101446.06;;;24.89;37.96
63115;BME280;49208;50.874;6.466;2022-07-06T07:05:04;101455.03;;;24.45;38.43
63115;BME280;49208;50.874;6.466;2022-07-06T07:07:29;101448.50;;;23.88;39.71
63115;BME280;49208;50.874;6.466;2022-07-06T07:09:55;101458.72;;;22.97;41.40
63115;BME280;49208;50.874;6.466;2022-07-06T07:12:20;101463.16;;;23.11;43.70
63115;BME280;49208;50.874;6.466;2022-07-06T07:14:46;101455.44;;;23.55;40.66
63115;BME280;49208;50.874;6.466;2022-07-06T07:17:12;101455.78;;;23.50;39.91
63115;BME280;49208;50.874;6.466;2022-07-06T07:19:38;101455.72;;;23.39;41.07
63115;BME280;49208;50.874;6.466;2022-07-06T07:22:04;101445.88;;;22.99;42.48
63115;BME280;49208;50.874;6.466;2022-07-06T07:24:29;101448.78;;;23.22;40.64
63115;BME280;49208;50.874;6.466;2022-07-06T07:26:55;101454.53;;;23.67;39.29
63115;BME280;49208;50.874;6.466;2022-07-06T07:29:20;101452.88;;;24.37;37.66
63115;BME280;49208;50.874;6.466;2022-07-06T07:31:46;101451.28;;;24.92;36.66
63115;BME280;49208;50.874;6.466;2022-07-06T07:34:12;101445.31;;;24.98;38.32
63115;BME280;49208;50.874;6.466;2022-07-06T07:36:37;101458.44;;;25.50;36.48
63115;BME280;49208;50.874;6.466;2022-07-06T07:39:03;101448.38;;;25.61;36.43
63115;BME280;49208;50.874;6.466;2022-07-06T07:41:30;101458.59;;;25.03;36.42
63115;BME280;49208;50.874;6.466;2022-07-06T07:43:55;101461.25;;;24.69;35.48
63115;BME280;49208;50.874;6.466;2022-07-06T07:46:21;101456.00;;;25.24;37.05
63115;BME280;49208;50.874;6.466;2022-07-06T07:48:46;101459.72;;;25.89;33.93
63115;BME280;49208;50.874;6.466;2022-07-06T07:51:11;101461.53;;;26.32;35.22
63115;BME280;49208;50.874;6.466;2022-07-06T07:53:37;101467.84;;;26.54;33.84
63115;BME280;49208;50.874;6.466;2022-07-06T07:56:02;101462.25;;;26.13;36.02
63115;BME280;49208;50.874;6.466;2022-07-06T07:58:28;101458.00;;;25.22;34.42
63115;BME280;49208;50.874;6.466;2022-07-06T08:00:54;101459.69;;;24.07;36.08
63115;BME280;49208;50.874;6.466;2022-07-06T08:03:19;101463.59;;;23.05;38.07
63115;BME280;49208;50.874;6.466;2022-07-06T08:09:22;101450.00;;;21.18;42.06
63115;BME280;49208;50.874;6.466;2022-07-06T08:11:47;101450.50;;;20.67;42.87
63115;BME280;49208;50.874;6.466;2022-07-06T08:14:12;101455.94;;;20.21;45.15
63115;BME280;49208;50.874;6.466;2022-07-06T08:16:39;101458.50;;;19.78;44.97
63115;BME280;49208;50.874;6.466;2022-07-06T08:22:26;101457.00;;;19.25;47.02
63115;BME280;49208;50.874;6.466;2022-07-06T08:24:52;101457.84;;;19.09;47.48
63115;BME280;49208;50.874;6.466;2022-07-06T08:27:17;101466.50;;;18.98;47.95
63115;BME280;49208;50.874;6.466;2022-07-06T08:29:43;101461.63;;;18.89;47.38
63115;BME280;49208;50.874;6.466;2022-07-06T08:32:08;101459.09;;;18.86;47.60
63115;BME280;49208;50.874;6.466;2022-07-06T08:34:34;101461.78;;;18.86;48.37
63115;BME280;49208;50.874;6.466;2022-07-06T08:36:59;101459.00;;;18.88;47.97
63115;BME280;49208;50.874;6.466;2022-07-06T08:39:25;101459.47;;;18.96;47.80
63115;BME280;49208;50.874;6.466;2022-07-06T08:41:50;101455.38;;;19.05;46.67
63115;BME280;49208;50.874;6.466;2022-07-06T08:44:17;101457.16;;;19.06;47.79
63115;BME280;49208;50.874;6.466;2022-07-06T08:46:43;101465.31;;;19.04;47.59
63115;BME280;49208;50.874;6.466;2022-07-06T08:49:12;101456.63;;;18.99;47.65
63115;BME280;49208;50.874;6.466;2022-07-06T08:51:38;101464.16;;;18.92;48.12
63115;BME280;49208;50.874;6.466;2022-07-06T08:54:04;101461.41;;;18.76;47.80
63115;BME280;49208;50.874;6.466;2022-07-06T08:56:30;101456.59;;;18.66;48.99
63115;BME280;49208;50.874;6.466;2022-07-06T08:58:55;101472.28;;;18.57;48.77
63115;BME280;49208;50.874;6.466;2022-07-06T09:01:21;101468.88;;;18.54;49.23
63115;BME280;49208;50.874;6.466;2022-07-06T09:03:49;101465.13;;;18.56;49.60
63115;BME280;49208;50.874;6.466;2022-07-06T09:06:17;101467.50;;;18.63;50.47
63115;BME280;49208;50.874;6.466;2022-07-06T09:08:45;101464.34;;;18.72;50.83
63115;BME280;49208;50.874;6.466;2022-07-06T09:11:11;101471.31;;;18.93;50.30
63115;BME280;49208;50.874;6.466;2022-07-06T09:13:37;101461.56;;;19.07;47.70
63115;BME280;49208;50.874;6.466;2022-07-06T09:16:13;101461.09;;;19.16;47.98
63115;BME280;49208;50.874;6.466;2022-07-06T09:18:39;101467.44;;;19.31;47.67
63115;BME280;49208;50.874;6.466;2022-07-06T09:21:07;101457.88;;;19.57;46.76
63115;BME280;49208;50.874;6.466;2022-07-06T09:23:33;101458.59;;;19.76;46.27
63115;BME280;49208;50.874;6.466;2022-07-06T09:26:02;101466.69;;;19.92;45.98
63115;BME280;49208;50.874;6.466;2022-07-06T09:28:44;101450.66;;;20.19;45.94
63115;BME280;49208;50.874;6.466;2022-07-06T09:31:10;101453.84;;;20.26;45.76
63115;BME280;49208;50.874;6.466;2022-07-06T09:33:36;101454.47;;;20.46;45.58
63115;BME280;49208;50.874;6.466;2022-07-06T09:36:02;101451.22;;;20.55;44.84
63115;BME280;49208;50.874;6.466;2022-07-06T09:38:28;101445.25;;;20.64;46.33
63115;BME280;49208;50.874;6.466;2022-07-06T09:40:54;101449.16;;;20.89;45.78
63115;BME280;49208;50.874;6.466;2022-07-06T09:43:23;101452.22;;;21.11;44.78
63115;BME280;49208;50.874;6.466;2022-07-06T09:45:51;101452.59;;;21.34;43.24
63115;BME280;49208;50.874;6.466;2022-07-06T09:48:18;101451.22;;;21.41;42.93
63115;BME280;49208;50.874;6.466;2022-07-06T09:53:16;101454.00;;;21.54;41.70
63115;BME280;49208;50.874;6.466;2022-07-06T09:55:49;101458.72;;;21.79;44.13
63115;BME280;49208;50.874;6.466;2022-07-06T09:58:16;101457.16;;;22.02;43.54
63115;BME280;49208;50.874;6.466;2022-07-06T10:00:42;101453.41;;;22.17;43.06
63115;BME280;49208;50.874;6.466;2022-07-06T10:03:08;101461.25;;;22.35;42.80
63115;BME280;49208;50.874;6.466;2022-07-06T10:05:38;101458.69;;;22.59;41.51
63115;BME280;49208;50.874;6.466;2022-07-06T10:08:05;101461.84;;;22.91;42.09
63115;BME280;49208;50.874;6.466;2022-07-06T10:10:31;101456.53;;;23.03;39.08
63115;BME280;49208;50.874;6.466;2022-07-06T10:12:58;101453.16;;;23.25;38.70
63115;BME280;49208;50.874;6.466;2022-07-06T10:15:28;101455.22;;;23.58;40.14
63115;BME280;49208;50.874;6.466;2022-07-06T10:17:57;101444.16;;;23.85;38.72
63115;BME280;49208;50.874;6.466;2022-07-06T10:20:23;101446.16;;;24.18;37.98
63115;BME280;49208;50.874;6.466;2022-07-06T10:22:50;101435.94;;;24.33;36.37
63115;BME280;49208;50.874;6.466;2022-07-06T10:25:19;101437.78;;;24.33;36.93
63115;BME280;49208;50.874;6.466;2022-07-06T10:27:48;101438.25;;;24.27;35.68
63115;BME280;49208;50.874;6.466;2022-07-06T10:30:15;101452.53;;;24.06;37.14
63115;BME280;49208;50.874;6.466;2022-07-06T10:32:42;101440.50;;;23.97;38.21
63115;BME280;49208;50.874;6.466;2022-07-06T10:35:09;101433.78;;;24.14;38.92
63115;BME280;49208;50.874;6.466;2022-07-06T10:37:34;101435.75;;;24.24;38.03
63115;BME280;49208;50.874;6.466;2022-07-06T10:40:00;101437.41;;;24.26;37.63
63115;BME280;49208;50.874;6.466;2022-07-06T10:42:46;101428.59;;;24.23;37.69
63115;BME280;49208;50.874;6.466;2022-07-06T10:50:39;101432.44;;;23.48;36.48
63115;BME280;49208;50.874;6.466;2022-07-06T10:53:14;101424.78;;;23.29;35.26
63115;BME280;49208;50.874;6.466;2022-07-06T10:55:43;101428.41;;;23.40;38.66
63115;BME280;49208;50.874;6.466;2022-07-06T10:58:09;101416.78;;;23.51;37.31
63115;BME280;49208;50.874;6.466;2022-07-06T11:00:51;101419.59;;;23.74;34.84
63115;BME280;49208;50.874;6.466;2022-07-06T11:03:40;101420.56;;;23.86;34.58
63115;BME280;49208;50.874;6.466;2022-07-06T11:06:12;101429.09;;;23.92;34.01
63115;BME280;49208;50.874;6.466;2022-07-06T11:08:46;101424.28;;;23.72;33.43
63115;BME280;49208;50.874;6.466;2022-07-06T11:11:16;101422.38;;;23.37;34.93
63115;BME280;49208;50.874;6.466;2022-07-06T11:16:18;101422.16;;;23.27;36.15
63115;BME280;49208;50.874;6.466;2022-07-06T11:19:10;101429.78;;;23.59;36.97
63115;BME280;49208;50.874;6.466;2022-07-06T11:21:35;101429.41;;;23.76;35.88
63115;BME280;49208;50.874;6.466;2022-07-06T11:24:02;101424.78;;;23.90;36.39
63115;BME280;49208;50.874;6.466;2022-07-06T11:26:30;101431.41;;;24.10;36.59
63115;BME280;49208;50.874;6.466;2022-07-06T11:28:55;101416.34;;;24.17;34.90
63115;BME280;49208;50.874;6.466;2022-07-06T11:31:23;101425.69;;;24.37;35.94
63115;BME280;49208;50.874;6.466;2022-07-06T11:33:48;101420.72;;;24.31;34.42
63115;BME280;49208;50.874;6.466;2022-07-06T11:36:19;101413.53;;;24.30;33.51
63115;BME280;49208;50.874;6.466;2022-07-06T11:38:46;101418.41;;;24.13;34.43
63115;BME280;49208;50.874;6.466;2022-07-06T11:41:12;101423.66;;;23.92;35.70
63115;BME280;49208;50.874;6.466;2022-07-06T11:43:42;101422.88;;;23.79;35.79
63115;BME280;49208;50.874;6.466;2022-07-06T11:46:24;101424.88;;;23.64;36.71
63115;BME280;49208;50.874;6.466;2022-07-06T11:48:58;101421.03;;;23.43;36.85
63115;BME280;49208;50.874;6.466;2022-07-06T11:51:27;101425.75;;;23.28;37.16
63115;BME280;49208;50.874;6.466;2022-07-06T11:53:56;101416.22;;;23.09;36.67
63115;BME280;49208;50.874;6.466;2022-07-06T11:56:23;101417.88;;;22.86;36.89
63115;BME280;49208;50.874;6.466;2022-07-06T11:58:52;101425.06;;;22.74;38.52
63115;BME280;49208;50.874;6.466;2022-07-06T12:01:18;101420.69;;;22.72;37.69
63115;BME280;49208;50.874;6.466;2022-07-06T12:03:44;101416.16;;;22.85;37.72
63115;BME280;49208;50.874;6.466;2022-07-06T12:06:16;101416.22;;;23.09;38.16
63115;BME280;49208;50.874;6.466;2022-07-06T12:08:50;101411.84;;;23.19;36.19
63115;BME280;49208;50.874;6.466;2022-07-06T12:11:44;101411.50;;;23.24;35.74
63115;BME280;49208;50.874;6.466;2022-07-06T12:14:17;101413.78;;;23.30;36.08
63115;BME280;49208;50.874;6.466;2022-07-06T12:16:44;101412.56;;;23.34;36.21
63115;BME280;49208;50.874;6.466;2022-07-06T12:19:09;101404.41;;;23.34;34.67
63115;BME280;49208;50.874;6.466;2022-07-06T12:21:45;101400.84;;;23.34;36.20
63115;BME280;49208;50.874;6.466;2022-07-06T12:24:23;101399.56;;;23.51;37.26
63115;BME280;49208;50.874;6.466;2022-07-06T12:26:50;101399.25;;;23.79;37.14
63115;BME280;49208;50.874;6.466;2022-07-06T12:29:16;101401.97;;;23.79;36.35
63115;BME280;49208;50.874;6.466;2022-07-06T12:31:52;101392.78;;;23.93;36.51
63115;BME280;49208;50.874;6.466;2022-07-06T12:34:20;101380.09;;;24.05;36.96
63115;BME280;49208;50.874;6.466;2022-07-06T12:36:47;101387.63;;;24.02;35.60
63115;BME280;49208;50.874;6.466;2022-07-06T12:39:14;101385.13;;;23.98;35.31
63115;BME280;49208;50.874;6.466;2022-07-06T12:41:43;101379.94;;;23.95;35.17
63115;BME280;49208;50.874;6.466;2022-07-06T12:44:10;101380.28;;;23.91;36.14
63115;BME280;49208;50.874;6.466;2022-07-06T12:46:37;101367.94;;;23.98;34.95
63115;BME280;49208;50.874;6.466;2022-07-06T12:49:22;101372.78;;;24.06;35.30
63115;BME280;49208;50.874;6.466;2022-07-06T12:51:55;101362.03;;;24.15;34.87
63115;BME280;49208;50.874;6.466;2022-07-06T12:54:22;101354.50;;;24.08;34.68
63115;BME280;49208;50.874;6.466;2022-07-06T12:59:25;101360.78;;;24.08;33.92
63115;BME280;49208;50.874;6.466;2022-07-06T13:01:52;101357.53;;;23.92;32.88
63115;BME280;49208;50.874;6.466;2022-07-06T13:04:21;101360.78;;;23.97;33.40
63115;BME280;49208;50.874;6.466;2022-07-06T13:06:46;101358.38;;;23.92;33.65
63115;BME280;49208;50.874;6.466;2022-07-06T13:09:12;101350.22;;;23.92;34.92